D/T METAR WX W/DIR W/SPE G/SPE TEMP DEWP
23/03/19 11:50 EGWC 231150Z 01006KT 9999 SCT028 BKN120 09/01 Q1034 BLU N (10°) 6.9mph 9°C 1°C
23/03/19 10:50 EGWC 231050Z 36006KT 9999 SCT026 BKN120 09/02 Q1034 BLU N (360°) 6.9mph 9°C 2°C
23/03/19 09:50 EGWC 230950Z 03006KT 9999 SCT026 BKN120 08/05 Q1034 BLU NNE (30°) 6.9mph 8°C 5°C
23/03/19 08:50 EGWC 230850Z 32004KT 9999 FEW022 BKN120 07/04 Q1033 BLU NW (320°) 4.6mph 7°C 4°C
20/03/19 15:50 EGWC 201550Z 19009KT 9999 FEW028 16/10 Q1030 BLU S (190°) 10.4mph 16°C 10°C
20/03/19 14:50 EGWC 201450Z 19008KT 9999 FEW025 16/10 Q1030 BLU S (190°) 9.2mph 16°C 10°C
20/03/19 13:50 EGWC 201350Z 19009KT 9999 FEW025 15/09 Q1031 BLU S (190°) 10.4mph 15°C 9°C
20/03/19 12:50 EGWC 201250Z 19009KT 9999 FEW020 15/10 Q1031 BLU S (190°) 10.4mph 15°C 10°C
20/03/19 11:50 EGWC 201150Z 18009KT 9999 FEW020 14/10 Q1031 BLU S (180°) 10.4mph 14°C 10°C
20/03/19 10:50 EGWC 201050Z 18007KT 9999 FEW040 13/09 Q1031 BLU S (180°) 8.1mph 13°C 9°C
20/03/19 09:50 EGWC 200950Z 19004KT CAVOK 11/09 Q1031 BLU S (190°) 4.6mph 11°C 9°C
20/03/19 08:50 EGWC 200850Z 20006KT CAVOK 10/08 Q1031 BLU SSW (200°) 6.9mph 10°C 8°C
20/03/19 07:50 EGWC 200750Z 18002KT CAVOK 06/05 Q1031 BLU S (180°) 2.3mph 6°C 5°C
19/03/19 15:50 EGWC 191550Z 26007KT 9999 BKN025 BKN038 13/06 Q1026 BLU W (260°) 8.1mph 13°C 6°C
19/03/19 14:50 EGWC 191450Z 23007KT 9999 FEW022 BKN036 13/06 Q1025 BLU SW (230°) 8.1mph 13°C 6°C
19/03/19 13:50 EGWC 191350Z 22009KT 9999 SCT020 BKN035 12/07 Q1026 WHT SW (220°) 10.4mph 12°C 7°C
19/03/19 12:50 EGWC 191250Z 21003KT 9999 FEW018 BKN025 11/07 Q1026 BLU SSW (210°) 3.5mph 11°C 7°C
19/03/19 11:50 EGWC 191150Z 25005KT 9999 BKN025 11/06 Q1027 BLU WSW (250°) 5.8mph 11°C 6°C
19/03/19 10:50 EGWC 191050Z 21003KT 9999 FEW015 BKN025 11/07 Q1026 BLU SSW (210°) 3.5mph 11°C 7°C
19/03/19 09:50 EGWC 190950Z 20005KT 9999 FEW015 BKN028 09/07 Q1026 BLU SSW (200°) 5.8mph 9°C 7°C
19/03/19 08:50 EGWC 190850Z 18003KT 9999 SCT025 BKN050 07/07 Q1026 BLU S (180°) 3.5mph 7°C 7°C
19/03/19 07:50 EGWC 190750Z 25003KT 9999 FEW016 BKN045 06/06 Q1026 BLU WSW (250°) 3.5mph 6°C 6°C
18/03/19 15:50 EGWC 181550Z 27007KT 9999 FEW020 BKN027 10/04 Q1020 BLU W (270°) 8.1mph 10°C 4°C
18/03/19 14:50 EGWC 181450Z 27005KT 9999 FEW017 BKN023 10/04 Q1020 WHT W (270°) 5.8mph 10°C 4°C
18/03/19 13:50 EGWC 181350Z 25007KT 9999 FEW017 BKN025 09/04 Q1020 BLU WSW (250°) 8.1mph 9°C 4°C
18/03/19 12:50 EGWC 181250Z 26005KT 9999 BKN026 09/03 Q1020 BLU W (260°) 5.8mph 9°C 3°C
18/03/19 11:50 EGWC 181150Z 27006KT 9999 BKN026 08/03 Q1020 BLU W (270°) 6.9mph 8°C 3°C
18/03/19 10:50 EGWC 181050Z 26006KT 9999 -DZ FEW018 BKN100 08/03 Q1020 BLU -DZ W (260°) 6.9mph 8°C 3°C
18/03/19 09:50 EGWC 180950Z 26008KT 9999 -DZ FEW020 BKN040 07/03 Q1020 BLU -DZ W (260°) 9.2mph 7°C 3°C
17/03/19 11:50 EGWC 171150Z 25009G20KT 9999 VCSH FEW013 SCT022 07/01 Q1004 WHT VCSH WSW (250°) 10.4mph 23.0mph 7°C 1°C
17/03/19 10:50 EGWC 171050Z 26013G24KT 9999 FEW013 SCT025 06/M00 Q1004 BLU W (260°) 15.0mph 27.6mph 6°C 0°C
17/03/19 09:50 EGWC 170950Z 26012G22KT 9999 SCT030 06/M01 Q1003 BLU W (260°) 13.8mph 25.3mph 6°C -1°C
17/03/19 08:50 EGWC 170850Z 27010KT 9999 FEW040 05/M00 Q1002 BLU W (270°) 11.5mph 5°C 0°C
13/03/19 10:50 EGWC 131050Z 28013G27KT 9999 BKN030 09/01 Q1007 BLU W (280°) 15.0mph 31.1mph 9°C 1°C
13/03/19 09:50 EGWC 130950Z 29017G28KT 9999 -SHRA BKN026 08/02 Q1006 BLU -SHRA WNW (290°) 19.6mph 32.2mph 8°C 2°C
13/03/19 08:50 EGWC 130850Z 27015G27KT 9999 SCT022 BKN030 08/03 Q1004 WHT W (270°) 17.3mph 31.1mph 8°C 3°C
13/03/19 07:50 EGWC 130750Z 27015KT 9999 SCT020 BKN025 07/03 Q1003 WHT W (270°) 17.3mph 7°C 3°C
12/03/19 15:50 EGWC 121550Z 25012G22KT 9999 SCT026 08/00 Q0999 BLU WSW (250°) 13.8mph 25.3mph 8°C 0°C
12/03/19 14:50 EGWC 121450Z 26010KT 9999 FEW012 SCT026 07/03 Q0999 BLU W (260°) 11.5mph 7°C 3°C
12/03/19 13:50 EGWC 121350Z 26007KT 9999 FEW008 BKN070 05/01 Q0999 BLU W (260°) 8.1mph 5°C 1°C
12/03/19 13:18 EGWC 121318Z 24007KT 9999 FEW008 BKN070 04/03 Q1000 BLU WSW (240°) 8.1mph 4°C 3°C
12/03/19 12:50 EGWC 121250Z 26009KT 9999 -RA FEW008 BKN014 04/03 Q1000 GRN -RA W (260°) 10.4mph 4°C 3°C
12/03/19 11:50 EGWC 121150Z 27006KT 8000 RA SCT010 BKN015 05/00 Q1000 GRN RA W (270°) 6.9mph 5°C 0°C
12/03/19 10:50 EGWC 121050Z 26007KT 8000 -RA FEW010 BKN015 05/02 Q1000 WHT -RA W (260°) 8.1mph 5°C 2°C
12/03/19 09:50 EGWC 120950Z 28009KT 7000 -RA FEW009 BKN012 05/04 Q1000 GRN -RA W (280°) 10.4mph 5°C 4°C
12/03/19 08:50 EGWC 120850Z 32007KT 3500 -RA FEW008 BKN010 06/05 Q1000 RERA YLO1 -RA NW (320°) 8.1mph 6°C 5°C
12/03/19 07:50 EGWC 120750Z 19015G26KT 9999 FEW008 BKN010 09/08 Q0999 GRN S (190°) 17.3mph 29.9mph 9°C 8°C
11/03/19 15:50 EGWC 111550Z 21009KT 9999 SCT036 10/M02 Q1023 BLU SSW (210°) 10.4mph 10°C -2°C
11/03/19 14:50 EGWC 111450Z 27009KT 9999 SCT038 10/M02 Q1024 BLU W (270°) 10.4mph 10°C -2°C
11/03/19 13:50 EGWC 111350Z 28010KT 9999 SCT038 10/M02 Q1025 BLU W (280°) 11.5mph 10°C -2°C
11/03/19 12:50 EGWC 111250Z 28012KT 9999 SCT028 09/M01 Q1025 BLU W (280°) 13.8mph 9°C -1°C
11/03/19 11:50 EGWC 111150Z 29013G23KT 9999 SCT028 08/04 Q1025 BLU WNW (290°) 15.0mph 26.5mph 8°C 4°C
11/03/19 10:50 EGWC 111050Z 28017G27KT 9999 SCT026 08/M03 Q1025 BLU W (280°) 19.6mph 31.1mph 8°C -3°C
11/03/19 09:50 EGWC 110950Z 29013KT 9999 FEW022 07/M03 Q1024 BLU WNW (290°) 15.0mph 7°C -3°C
11/03/19 08:50 EGWC 110850Z 27014KT 9999 FEW020 06/M01 Q1023 BLU W (270°) 16.1mph 6°C -1°C
11/03/19 07:50 EGWC 110750Z 27010KT CAVOK 04/M01 Q1022 BLU W (270°) 11.5mph 4°C -1°C
9/03/19 15:50 EGWC 091550Z 28011G22KT 9999 FEW020 BKN025 10/00 Q1013 BLU W (280°) 12.7mph 25.3mph 10°C 0°C
9/03/19 14:50 EGWC 091450Z 28013G23KT 9999 SCT023 10/01 Q1012 WHT W (280°) 15.0mph 26.5mph 10°C 1°C
9/03/19 13:50 EGWC 091350Z 27015G25KT 9999 SCT025 10/M02 Q1012 BLU W (270°) 17.3mph 28.8mph 10°C -2°C
9/03/19 12:50 EGWC 091250Z 30021G31KT 9999 SCT035 10/00 Q1011 BLU WNW (300°) 24.2mph 35.7mph 10°C 0°C
9/03/19 10:50 EGWC 091050Z 28020G37KT 6000 -RA FEW010 BKN015 09/02 Q1009 WHT -RA W (280°) 23.0mph 42.6mph 9°C 2°C
9/03/19 09:50 EGWC 090950Z 27014G31KT 9999 BKN023 10/05 Q1007 WHT W (270°) 16.1mph 35.7mph 10°C 5°C
9/03/19 08:50 EGWC 090850Z 25019G30KT 6000 RA FEW009 BKN015 09/07 Q1006 WHT RA WSW (250°) 21.9mph 34.5mph 9°C 7°C
9/03/19 08:20 EGWC 090820Z 25014G24KT 7000 RA FEW009 BKN015 09/07 Q1006 WHT RA WSW (250°) 16.1mph 27.6mph 9°C 7°C
6/03/19 10:50 EGWC 061050Z 17009G19KT 9999 6000S -RA FEW005 BKN007 OVC030 11/09 Q0984 GRN -RA S (170°) 10.4mph 21.9mph 11°C 9°C
6/03/19 09:50 EGWC 060950Z 17010KT 9999 -SHRA BKN008 11/10 Q0985 GRN -SHRA S (170°) 11.5mph 11°C 10°C
6/03/19 08:50 EGWC 060850Z 17007KT 9999 SCT010 BKN011 10/09 Q0985 GRN S (170°) 8.1mph 10°C 9°C
6/03/19 07:50 EGWC 060750Z 17007G17KT 9999 -RA OVC008 09/08 Q0986 GRN -RA S (170°) 8.1mph 19.6mph 9°C 8°C
5/03/19 15:50 EGWC 051550Z 21012G22KT 9999 FEW018 10/03 Q1000 BLU SSW (210°) 13.8mph 25.3mph 10°C 3°C
5/03/19 14:50 EGWC 051450Z 23008KT 9999 SCT030 10/01 Q1000 BLU SW (230°) 9.2mph 10°C 1°C
5/03/19 13:50 EGWC 051350Z 22012G22KT 9999 SCT033 11/M00 Q1000 BLU SW (220°) 13.8mph 25.3mph 11°C 0°C
5/03/19 12:50 EGWC 051250Z 24013KT 9999 SCT028 11/01 Q1000 BLU WSW (240°) 15.0mph 11°C 1°C
5/03/19 11:50 EGWC 051150Z 22016KT 9999 FEW020 SCT028 10/03 Q1000 BLU SW (220°) 18.4mph 10°C 3°C
5/03/19 10:50 EGWC 051050Z 22012KT 9999 FEW022 SCT030 10/03 Q0999 BLU SW (220°) 13.8mph 10°C 3°C
5/03/19 09:50 EGWC 050950Z 21013KT 9999 FEW022 08/03 Q0999 BLU SSW (210°) 15.0mph 8°C 3°C
5/03/19 08:50 EGWC 050850Z 20013KT 9999 FEW025 06/03 Q0999 BLU SSW (200°) 15.0mph 6°C 3°C
5/03/19 07:50 EGWC 050750Z 19011KT 9999 FEW030 04/02 Q0999 BLU S (190°) 12.7mph 4°C 2°C
4/03/19 13:50 EGWC 041350Z 25007KT 9999 -SHRA FEW008 BKN012 07/05 Q0993 GRN -SHRA WSW (250°) 8.1mph 7°C 5°C
4/03/19 12:50 EGWC 041250Z 27008KT 3500 SHRA BKN008 07/04 Q0993 YLO1 SHRA W (270°) 9.2mph 7°C 4°C
4/03/19 11:50 EGWC 041150Z 23013KT 9999 SHRA FEW020 BKN028 09/02 Q0993 BLU SHRA SW (230°) 15.0mph 9°C 2°C
4/03/19 10:50 EGWC 041050Z 25012G23KT 9999 FEW022 SCT027 08/02 Q0993 BLU WSW (250°) 13.8mph 26.5mph 8°C 2°C
4/03/19 09:50 EGWC 040950Z 26011KT 9999 FEW022 07/02 Q0992 BLU W (260°) 12.7mph 7°C 2°C
4/03/19 08:50 EGWC 040850Z 25010KT 9999 FEW022 06/01 Q0991 BLU WSW (250°) 11.5mph 6°C 1°C
4/03/19 07:50 EGWC 040750Z 24008KT 9999 FEW037 05/00 Q0990 BLU WSW (240°) 9.2mph 5°C 0°C
2/03/19 14:50 EGWC 021450Z 22018G29KT 9999 FEW011 BKN020 12/05 Q1006 WHT SW (220°) 20.7mph 33.4mph 12°C 5°C
2/03/19 13:50 EGWC 021350Z 20015G25KT 9999 BKN030 12/05 Q1006 BLU SSW (200°) 17.3mph 28.8mph 12°C 5°C
2/03/19 12:50 EGWC 021250Z 22009G20KT 9999 SCT030 12/05 Q1007 BLU SW (220°) 10.4mph 23.0mph 12°C 5°C
2/03/19 11:50 EGWC 021150Z 21009G19KT 9999 FEW010 SCT015 13/07 Q1008 WHT SSW (210°) 10.4mph 21.9mph 13°C 7°C
2/03/19 10:50 EGWC 021050Z 19010KT 9999 FEW011 SCT015 11/09 Q1008 WHT S (190°) 11.5mph 11°C 9°C
2/03/19 09:50 EGWC 020950Z 19010KT 9999 FEW011 SCT015 10/08 Q1009 WHT S (190°) 11.5mph 10°C 8°C
2/03/19 08:50 EGWC 020850Z 20007KT 9999 SCT015 08/08 Q1009 WHT SSW (200°) 8.1mph 8°C 8°C
27/02/19 16:50 EGWC 271650Z 20004KT CAVOK 15/07 Q1021 BLU SSW (200°) 4.6mph 15°C 7°C
27/02/19 15:50 EGWC 271550Z 20004KT CAVOK 16/03 Q1022 BLU SSW (200°) 4.6mph 16°C 3°C
27/02/19 14:50 EGWC 271450Z 21004KT CAVOK 16/03 Q1022 BLU SSW (210°) 4.6mph 16°C 3°C
27/02/19 13:50 EGWC 271350Z 18003KT CAVOK 15/05 Q1023 BLU S (180°) 3.5mph 15°C 5°C
27/02/19 12:50 EGWC 271250Z 19004KT CAVOK 14/06 Q1024 BLU S (190°) 4.6mph 14°C 6°C
27/02/19 11:50 EGWC 271150Z 21003KT 7000 HZ SKC 12/04 Q1024 WHT HZ SSW (210°) 3.5mph 12°C 4°C
27/02/19 10:50 EGWC 271050Z 18004KT 3700 HZ SKC 10/04 Q1025 GRN HZ S (180°) 4.6mph 10°C 4°C
27/02/19 09:50 EGWC 270950Z 21003KT 3500 HZ SKC 07/03 Q1025 YLO1 HZ SSW (210°) 3.5mph 7°C 3°C
27/02/19 08:50 EGWC 270850Z 20001KT 3500 HZ SKC 04/01 Q1026 YLO1 HZ SSW (200°) 1.2mph 4°C 1°C
27/02/19 07:50 EGWC 270750Z 31001KT 3000 BR SKC M01/M01 Q1026 YLO1 BR NW (310°) 1.2mph -1°C -1°C
26/02/19 15:50 EGWC 261550Z 17009KT CAVOK 17/04 Q1030 BLU S (170°) 10.4mph 17°C 4°C
26/02/19 14:50 EGWC 261450Z 18007KT CAVOK 18/05 Q1030 BLU S (180°) 8.1mph 18°C 5°C
26/02/19 13:50 EGWC 261350Z 17006KT CAVOK 17/04 Q1031 BLU S (170°) 6.9mph 17°C 4°C
26/02/19 12:50 EGWC 261250Z 20004KT CAVOK 16/06 Q1032 BLU SSW (200°) 4.6mph 16°C 6°C
26/02/19 11:50 EGWC 261150Z 22004KT CAVOK 14/06 Q1032 BLU SW (220°) 4.6mph 14°C 6°C
26/02/19 10:50 EGWC 261050Z 23002KT 6000 HZ SKC 11/03 Q1033 WHT HZ SW (230°) 2.3mph 11°C 3°C
26/02/19 09:50 EGWC 260950Z 25001KT 6000 HZ SKC 07/02 Q1033 WHT HZ WSW (250°) 1.2mph 7°C 2°C
26/02/19 08:50 EGWC 260850Z 28001KT6000 BR SKC 02/01 Q1033 WHT BR N (0°) 2°C 1°C
26/02/19 07:50 EGWC 260750Z 22001KT 6000 BR SKC M00/M01 Q1033 WHT BR SW (220°) 1.2mph 0°C -1°C
25/02/19 15:50 EGWC 251550Z 17006KT CAVOK 16/03 Q1034 BLU S (170°) 6.9mph 16°C 3°C
25/02/19 14:50 EGWC 251450Z 17008KT CAVOK 16/02 Q1035 BLU S (170°) 9.2mph 16°C 2°C
25/02/19 13:50 EGWC 251350Z 16008KT CAVOK 16/09 Q1035 BLU SSE (160°) 9.2mph 16°C 9°C
25/02/19 12:50 EGWC 251250Z 15009KT CAVOK 14/03 Q1036 BLU SSE (150°) 10.4mph 14°C 3°C
25/02/19 11:50 EGWC 251150Z 17006KT CAVOK 13/03 Q1036 BLU S (170°) 6.9mph 13°C 3°C
25/02/19 10:50 EGWC 251050Z 20004KT 6000 HZ FEW250 09/04 Q1037 WHT HZ SSW (200°) 4.6mph 9°C 4°C
25/02/19 09:50 EGWC 250950Z 20002KT 5000 HZ FEW200 05/04 Q1037 WHT HZ SSW (200°) 2.3mph 5°C 4°C
25/02/19 08:50 EGWC 250850Z 30003KT 3800 HZ FEW200 01/M01 Q1036 GRN HZ WNW (300°) 3.5mph 1°C -1°C
25/02/19 07:50 EGWC 250750Z 08003KT 4000 MIFG BR FEW200 M01/M01 Q1036 GRN MIFG BR E (80°) 3.5mph -1°C -1°C
24/02/19 15:50 EGWC 241550Z 19002KT 6000 HZ FEW045 15/09 Q1035 WHT HZ S (190°) 2.3mph 15°C 9°C
24/02/19 14:50 EGWC 241450Z 20001KT 3700 HZ FEW040 13/09 Q1035 GRN HZ SSW (200°) 1.2mph 13°C 9°C
24/02/19 14:05 EGWC 241405Z 21003KT 3700 HZ FEW005 11/09 Q1035 GRN HZ SSW (210°) 3.5mph 11°C 9°C
24/02/19 13:50 EGWC 241350Z 22002KT 3000 HZ FEW005 11/09 Q1035 YLO1 HZ SW (220°) 2.3mph 11°C 9°C
24/02/19 12:50 EGWC 241250Z 20002KT 0500 FG VV/// 09/09 Q1036 RED FG SSW (200°) 2.3mph 9°C 9°C
24/02/19 11:50 EGWC 241150Z VRB01KT 0700 FG VV/// 09/09 Q1036 RED FG N (0°) 1.2mph 9°C 9°C
24/02/19 10:50 EGWC 241050Z 09002KT 0050 FG VV/// 06/06 Q1036 RED FG E (90°) 2.3mph 6°C 6°C
24/02/19 09:50 EGWC 240950Z 29001KT 0050 FG VV/// 05/05 Q1036 RED FG WNW (290°) 1.2mph 5°C 5°C
24/02/19 08:50 EGWC 240850Z 30002KT 0000 FG VV/// 04/04 Q1036 RED FG WNW (300°) 2.3mph 4°C 4°C
23/02/19 15:50 EGWC 231550Z 14004KT 8000 HZ FEW038 14/08 Q1031 BLU HZ SE (140°) 4.6mph 14°C 8°C
23/02/19 14:50 EGWC 231450Z 19008KT 8000 HZ SKC 14/08 Q1031 BLU HZ S (190°) 9.2mph 14°C 8°C
23/02/19 13:50 EGWC 231350Z 14009KT 8000 HZ SKC 15/10 Q1031 BLU HZ SE (140°) 10.4mph 15°C 10°C
23/02/19 12:50 EGWC 231250Z 18007KT 8000 HZ SKC 13/08 Q1032 BLU HZ S (180°) 8.1mph 13°C 8°C
23/02/19 11:50 EGWC 231150Z 17007KT 8000 HZ SKC 12/08 Q1032 BLU HZ S (170°) 8.1mph 12°C 8°C
23/02/19 10:50 EGWC 231050Z 19007KT 4000 HZ FEW002 10/07 Q1032 GRN HZ S (190°) 8.1mph 10°C 7°C
23/02/19 09:50 EGWC 230950Z 15006KT 2800 BR FEW002 08/06 Q1032 YLO1 BR SSE (150°) 6.9mph 8°C 6°C
23/02/19 08:50 EGWC 230850Z 07002KT 1400 BR FEW002 02/01 Q1032 AMB BR ENE (70°) 2.3mph 2°C 1°C
20/02/19 15:50 EGWC 201550Z 19010KT 9999 FEW045 11/07 Q1017 BLU S (190°) 11.5mph 11°C 7°C
20/02/19 14:50 EGWC 201450Z 20008G18KT 9999 -RA BKN022 10/06 Q1017 WHT -RA SSW (200°) 9.2mph 20.7mph 10°C 6°C
20/02/19 13:50 EGWC 201350Z 19012KT 9999 BKN023 11/06 Q1017 WHT S (190°) 13.8mph 11°C 6°C
20/02/19 12:50 EGWC 201250Z 20016KT 9999 FEW022 BKN024 11/06 Q1017 WHT SSW (200°) 18.4mph 11°C 6°C
20/02/19 11:50 EGWC 201150Z 19010KT 9999 BKN023 10/06 Q1017 WHT S (190°) 11.5mph 10°C 6°C
20/02/19 10:50 EGWC 201050Z 20010KT 9999 BKN023 10/05 Q1017 WHT SSW (200°) 11.5mph 10°C 5°C
20/02/19 09:50 EGWC 200950Z 19008KT 9999 FEW015 BKN023 09/05 Q1026 WHT S (190°) 9.2mph 9°C 5°C
20/02/19 08:50 EGWC 200850Z 19009KT 9999 SCT022 BKN060 08/06 Q1015 WHT S (190°) 10.4mph 8°C 6°C